EKSP/SKS METAR and TAF weather

Enter ICAO airport designator
Station Type Date Time Source
EKSP METAR 2020/03/31 21:50 UTC NOAA

EKSP 312150Z 26012KT 9999 SCT010 BKN020 BKN030 05/03 Q1023


Station Type Date Time Source
EKSP Decoded METAR 2020/03/31 21:50 UTC NOAA

Skrydstrup, Denmark (EKSP) 55-14N 009-16E 47M
Mar 31, 2020 - 05:50 PM EDT / 2020.03.31 2150 UTC
Wind: from the W (260 degrees) at 14 MPH (12 KT):0
Visibility: greater than 7 mile(s):0
Sky conditions: mostly cloudy
Temperature: 41 F (5 C)
Dew Point: 37 F (3 C)
Relative Humidity: 86%
Pressure (altimeter): 30.21 in. Hg (1023 hPa)
ob: EKSP 312150Z 26012KT 9999 SCT010 BKN020 BKN030 05/03 Q1023
cycle: 22

Station Type Date Time Source
EKSP TAF 2020/03/31 21:31 UTC NOAA

TAF EKSP 312002Z 3121/0121 28012KT 9999 BKN030
TEMPO 3121/0109 7000 -SHRA SCT008 BKN012TCU
TEMPO 0109/0116 28012G25KT 7000 -SHRA SCT012 BKN020TCU
TEMPO 0116/0121 7000 -SHRA SCT008 BKN012TCU

Example: see airport list